createdAt,value
2018-06-06T00:00:04.241Z,24.99
2018-06-06T00:00:44.788Z,25.05
2018-06-06T00:01:25.317Z,25.09
2018-06-06T00:03:23.486Z,24.93
2018-06-06T00:04:04.012Z,24.87
2018-06-06T00:04:44.535Z,25.06
2018-06-06T00:05:25.054Z,25.03
2018-06-06T00:06:05.579Z,25
2018-06-06T00:06:46.060Z,24.87
2018-06-06T00:07:26.580Z,24.9
2018-06-06T00:08:07.082Z,24.9
2018-06-06T00:08:47.587Z,24.96
2018-06-06T00:09:28.127Z,24.95
2018-06-06T00:10:08.635Z,24.93
2018-06-06T00:10:49.169Z,24.9
2018-06-06T00:11:29.684Z,24.9
2018-06-06T00:12:10.204Z,24.9
2018-06-06T00:12:50.739Z,24.9
2018-06-06T00:13:31.252Z,24.93
2018-06-06T00:14:11.780Z,24.98
2018-06-06T00:14:52.302Z,24.8
2018-06-06T00:15:32.817Z,24.87
2018-06-06T00:16:13.344Z,24.8
2018-06-06T00:16:53.859Z,24.81
2018-06-06T00:17:34.382Z,24.9
2018-06-06T00:18:14.895Z,24.91
2018-06-06T00:18:55.419Z,24.87
2018-06-06T00:19:35.968Z,24.87
2018-06-06T00:20:16.483Z,24.98
2018-06-06T00:20:57.015Z,24.85
2018-06-06T00:21:37.514Z,24.91
2018-06-06T00:22:18.048Z,24.88
2018-06-06T00:22:58.582Z,24.81
2018-06-06T00:23:39.105Z,24.88
2018-06-06T00:24:19.623Z,24.83
2018-06-06T00:25:00.165Z,24.69
2018-06-06T00:25:40.675Z,24.76
2018-06-06T00:26:21.202Z,24.77
2018-06-06T00:27:01.733Z,24.8
2018-06-06T00:27:42.247Z,24.64
2018-06-06T00:28:22.778Z,24.65
2018-06-06T00:29:03.291Z,24.71
2018-06-06T00:29:43.839Z,24.61
2018-06-06T00:30:24.377Z,24.73
2018-06-06T00:31:04.898Z,24.68
2018-06-06T00:31:45.429Z,24.65
2018-06-06T00:32:25.954Z,24.67
2018-06-06T00:33:06.475Z,24.58
2018-06-06T00:33:46.993Z,24.53
2018-06-06T00:34:27.512Z,24.53
2018-06-06T00:35:08.038Z,24.34
2018-06-06T00:35:48.562Z,24.4
2018-06-06T00:36:29.081Z,24.39
2018-06-06T00:37:09.612Z,24.37
2018-06-06T00:37:50.128Z,24.42
2018-06-06T00:38:30.650Z,24.34
2018-06-06T00:39:11.164Z,24.34
2018-06-06T00:39:51.681Z,24.37
2018-06-06T00:40:32.201Z,24.42
2018-06-06T00:41:12.744Z,24.34
2018-06-06T00:41:53.257Z,24.34
2018-06-06T00:42:33.772Z,24.39
2018-06-06T00:43:14.288Z,24.3
2018-06-06T00:43:54.809Z,24.37
2018-06-06T00:44:35.331Z,24.32
2018-06-06T00:45:15.849Z,24.39
2018-06-06T00:45:56.367Z,24.32
2018-06-06T00:46:36.894Z,24.34
2018-06-06T00:47:17.416Z,24.43
2018-06-06T00:47:57.941Z,24.32
2018-06-06T00:48:38.476Z,24.39
2018-06-06T00:49:18.997Z,24.32
2018-06-06T00:49:59.515Z,24.32
2018-06-06T00:50:40.049Z,24.37
2018-06-06T00:51:20.566Z,24.39
2018-06-06T00:52:01.104Z,24.37
2018-06-06T00:52:41.615Z,24.32
2018-06-06T00:53:22.154Z,24.25
2018-06-06T00:54:02.672Z,24.3
2018-06-06T00:54:43.196Z,24.25
2018-06-06T00:55:23.715Z,24.3
2018-06-06T00:56:04.247Z,24.35
2018-06-06T00:56:44.747Z,24.32
2018-06-06T00:57:25.259Z,24.27
2018-06-06T00:58:05.777Z,24.28
2018-06-06T00:58:46.308Z,24.43
2018-06-06T00:59:26.824Z,24.25
2018-06-06T01:00:07.345Z,24.34
2018-06-06T01:00:47.865Z,24.42
2018-06-06T01:01:28.380Z,24.31
2018-06-06T01:02:08.900Z,24.42
2018-06-06T01:02:49.409Z,24.42
2018-06-06T01:03:29.940Z,24.4
2018-06-06T01:04:10.462Z,24.46
2018-06-06T01:04:50.982Z,24.45
2018-06-06T01:05:31.506Z,24.39
2018-06-06T01:06:12.036Z,24.37
2018-06-06T01:06:52.536Z,24.45
2018-06-06T01:07:33.065Z,24.52
2018-06-06T01:08:13.585Z,24.5
2018-06-06T01:08:54.100Z,24.35
2018-06-06T01:09:34.623Z,24.39
2018-06-06T01:10:15.149Z,24.37
2018-06-06T01:10:55.673Z,24.24
2018-06-06T01:11:36.198Z,24.3
2018-06-06T01:12:16.716Z,24.25
2018-06-06T01:12:57.247Z,24.3
2018-06-06T01:13:37.762Z,24.28
2018-06-06T01:14:18.287Z,24.21
2018-06-06T01:14:58.795Z,24.3
2018-06-06T01:15:39.328Z,24.27
2018-06-06T01:16:19.853Z,24.22
2018-06-06T01:17:00.374Z,24.25
2018-06-06T01:17:40.903Z,24.28
2018-06-06T01:18:21.413Z,24.18
2018-06-06T01:19:01.940Z,24.27
2018-06-06T01:19:42.451Z,24.24
2018-06-06T01:20:22.979Z,24.22
2018-06-06T01:21:03.506Z,24.16
2018-06-06T01:21:44.041Z,24.06
2018-06-06T01:22:24.555Z,24.15
2018-06-06T01:23:05.072Z,24.18
2018-06-06T01:23:45.602Z,24.15
2018-06-06T01:24:26.113Z,24.09
2018-06-06T01:25:06.629Z,24.12
2018-06-06T01:25:47.157Z,24.24
2018-06-06T01:26:27.682Z,24.09
2018-06-06T01:27:08.206Z,24.05
2018-06-06T01:27:48.729Z,24.06
2018-06-06T01:28:29.250Z,24.08
2018-06-06T01:29:09.769Z,24.09
2018-06-06T01:29:50.313Z,24.06
2018-06-06T01:30:30.829Z,24
2018-06-06T01:31:11.356Z,23.94
2018-06-06T01:31:51.880Z,23.87
2018-06-06T01:32:32.425Z,23.97
2018-06-06T01:33:12.944Z,23.98
2018-06-06T01:33:53.476Z,23.83
2018-06-06T01:34:33.994Z,23.88
2018-06-06T01:35:14.518Z,23.85
2018-06-06T01:35:55.040Z,23.94
2018-06-06T01:36:35.575Z,24.02
2018-06-06T01:37:16.092Z,24.06
2018-06-06T01:37:56.607Z,24.06
2018-06-06T01:38:37.126Z,23.95
2018-06-06T01:39:17.643Z,23.94
2018-06-06T01:39:58.152Z,24.03
2018-06-06T01:40:38.683Z,24.05
2018-06-06T01:41:19.203Z,24.08
2018-06-06T01:41:59.722Z,24.12
2018-06-06T01:42:40.230Z,24.1
2018-06-06T01:43:20.723Z,24.08
2018-06-06T01:44:01.260Z,24.2
2018-06-06T01:44:41.749Z,24.08
2018-06-06T01:45:22.247Z,24.06
2018-06-06T01:46:02.760Z,24.05
2018-06-06T01:48:16.041Z,24.06
2018-06-06T01:48:56.559Z,24
2018-06-06T01:49:37.089Z,23.94
2018-06-06T01:50:17.609Z,23.93
2018-06-06T01:50:58.129Z,23.95
2018-06-06T01:51:38.655Z,23.98
2018-06-06T01:52:19.187Z,23.95
2018-06-06T01:52:59.719Z,23.88
2018-06-06T01:53:40.236Z,23.95
2018-06-06T01:54:20.749Z,23.88
2018-06-06T01:55:01.266Z,23.88
2018-06-06T01:55:41.769Z,23.85
2018-06-06T01:56:22.280Z,23.72
2018-06-06T01:57:02.775Z,23.84
2018-06-06T01:57:43.271Z,23.83
2018-06-06T01:58:23.792Z,23.76
2018-06-06T01:59:04.302Z,23.85
2018-06-06T01:59:44.806Z,23.85
2018-06-06T02:00:25.312Z,23.72
2018-06-06T02:01:05.829Z,23.68
2018-06-06T02:01:46.333Z,23.73
2018-06-06T02:02:26.837Z,23.7
2018-06-06T02:03:07.372Z,23.7
2018-06-06T02:03:47.833Z,23.69
2018-06-06T02:04:28.346Z,23.79
2018-06-06T02:05:08.846Z,23.83
2018-06-06T02:05:49.364Z,23.85
2018-06-06T02:06:29.875Z,23.85
2018-06-06T02:07:10.378Z,23.73
2018-06-06T02:07:50.907Z,23.85
2018-06-06T02:08:31.442Z,23.76
2018-06-06T02:09:11.938Z,23.7
2018-06-06T02:09:52.455Z,23.76
2018-06-06T02:10:32.963Z,23.73
2018-06-06T02:11:13.474Z,23.8
2018-06-06T02:11:53.974Z,23.83
2018-06-06T02:12:34.538Z,23.72
2018-06-06T02:13:15.053Z,23.72
2018-06-06T02:13:55.568Z,23.6
2018-06-06T02:14:36.066Z,23.55
2018-06-06T02:15:16.569Z,23.61
2018-06-06T02:15:57.078Z,23.7
2018-06-06T02:16:37.628Z,23.61
2018-06-06T02:17:18.135Z,23.55
2018-06-06T02:17:58.649Z,23.51
2018-06-06T02:18:39.150Z,23.65
2018-06-06T02:19:19.654Z,23.55
2018-06-06T02:20:00.163Z,23.63
2018-06-06T02:20:40.681Z,23.53
2018-06-06T02:21:21.203Z,23.7
2018-06-06T02:22:01.712Z,23.61
2018-06-06T02:22:42.206Z,23.61
2018-06-06T02:23:22.705Z,23.54
2018-06-06T02:24:03.229Z,23.58
2018-06-06T02:24:43.743Z,23.6
2018-06-06T02:25:24.245Z,23.47
2018-06-06T02:26:04.747Z,23.39
2018-06-06T02:26:45.285Z,23.46
2018-06-06T02:27:25.773Z,23.48
2018-06-06T02:28:06.295Z,23.46
2018-06-06T02:28:46.801Z,23.35
2018-06-06T02:29:27.325Z,23.4
2018-06-06T02:30:07.843Z,23.42
2018-06-06T02:30:48.365Z,23.42
2018-06-06T02:31:28.888Z,23.43
2018-06-06T02:32:09.397Z,23.39
2018-06-06T02:32:49.904Z,23.35
2018-06-06T02:33:30.402Z,23.36
2018-06-06T02:34:10.935Z,23.28
2018-06-06T02:34:51.435Z,23.31
2018-06-06T02:35:31.972Z,23.28
2018-06-06T02:36:12.485Z,23.33
2018-06-06T02:36:52.969Z,23.36
2018-06-06T02:37:33.470Z,23.27
2018-06-06T02:38:13.966Z,23.35
2018-06-06T02:38:54.502Z,23.28
2018-06-06T02:39:35.001Z,23.32
2018-06-06T02:40:15.498Z,23.38
2018-06-06T02:40:55.990Z,23.32
2018-06-06T02:41:36.517Z,23.27
2018-06-06T02:42:17.001Z,23.27
2018-06-06T02:42:57.525Z,23.31
2018-06-06T02:43:38.065Z,23.28
2018-06-06T02:44:18.573Z,23.35
2018-06-06T02:44:59.108Z,23.35
2018-06-06T02:45:39.591Z,23.33
2018-06-06T02:46:20.084Z,23.28
2018-06-06T02:47:00.615Z,23.35
2018-06-06T02:47:41.119Z,23.4
2018-06-06T02:48:21.637Z,23.38
2018-06-06T02:49:02.126Z,23.33
2018-06-06T02:49:42.636Z,23.23
2018-06-06T02:50:23.113Z,23.22
2018-06-06T02:51:03.635Z,23.28
2018-06-06T02:51:44.146Z,23.23
2018-06-06T02:52:24.661Z,23.23
2018-06-06T02:53:05.159Z,23.25
2018-06-06T02:53:45.673Z,23.1
2018-06-06T02:54:26.176Z,23.16
2018-06-06T02:55:06.726Z,23.05
2018-06-06T02:55:47.212Z,22.94
2018-06-06T02:56:27.724Z,23.15
2018-06-06T02:57:08.232Z,23.09
2018-06-06T02:57:48.752Z,23.12
2018-06-06T02:58:29.248Z,23.22
2018-06-06T02:59:09.762Z,23.22
2018-06-06T02:59:50.256Z,23.23
2018-06-06T03:00:30.798Z,23.31
2018-06-06T03:01:11.320Z,23.31
2018-06-06T03:01:51.826Z,23.38
2018-06-06T03:02:32.333Z,23.32
2018-06-06T03:03:12.829Z,23.31
2018-06-06T03:03:53.315Z,23.46
2018-06-06T03:04:33.812Z,23.38
2018-06-06T03:05:14.327Z,23.35
2018-06-06T03:05:54.820Z,23.35
2018-06-06T03:06:35.329Z,23.48
2018-06-06T03:07:15.851Z,23.43
2018-06-06T03:07:56.349Z,23.38
2018-06-06T03:08:36.872Z,23.4
2018-06-06T03:09:17.412Z,23.32
2018-06-06T03:09:57.914Z,23.33
2018-06-06T03:10:38.401Z,23.35
2018-06-06T03:11:18.901Z,23.42
2018-06-06T03:11:59.412Z,23.36
2018-06-06T03:12:39.949Z,23.4
2018-06-06T03:13:20.462Z,23.46
2018-06-06T03:14:00.972Z,23.33
2018-06-06T03:14:41.493Z,23.43
2018-06-06T03:15:22.000Z,23.35
2018-06-06T03:16:02.509Z,23.42
2018-06-06T03:16:43.048Z,23.4
2018-06-06T03:17:23.520Z,23.38
2018-06-06T03:18:04.024Z,23.38
2018-06-06T03:18:44.524Z,23.48
2018-06-06T03:19:25.029Z,23.53
2018-06-06T03:20:05.522Z,23.43
2018-06-06T03:20:46.064Z,23.48
2018-06-06T03:21:26.557Z,23.54
2018-06-06T03:22:07.075Z,23.58
2018-06-06T03:22:47.619Z,23.43
2018-06-06T03:23:28.108Z,23.31
2018-06-06T03:24:08.603Z,23.4
2018-06-06T03:24:49.111Z,23.23
2018-06-06T03:25:29.622Z,23.31
2018-06-06T03:26:10.132Z,23.33
2018-06-06T03:26:50.634Z,23.19
2018-06-06T03:27:31.137Z,23.23
2018-06-06T03:28:11.658Z,23.13
2018-06-06T03:28:52.163Z,23.2
2018-06-06T03:29:32.683Z,23.22
2018-06-06T03:30:13.218Z,23.31
2018-06-06T03:30:53.677Z,23.28
2018-06-06T03:31:34.188Z,23.13
2018-06-06T03:32:14.688Z,23.28
2018-06-06T03:32:55.190Z,23.23
2018-06-06T03:33:35.719Z,23.19
2018-06-06T03:34:16.194Z,23.28
2018-06-06T03:34:56.707Z,23.28
2018-06-06T03:35:37.245Z,23.42
2018-06-06T03:36:17.761Z,23.31
2018-06-06T03:36:58.278Z,23.38
2018-06-06T03:37:38.794Z,23.38
2018-06-06T03:38:19.291Z,23.32
2018-06-06T03:38:59.813Z,23.39
2018-06-06T03:39:40.323Z,23.27
2018-06-06T03:40:20.820Z,23.4
2018-06-06T03:41:01.359Z,23.36
2018-06-06T03:41:41.856Z,23.31
2018-06-06T03:42:22.352Z,23.33
2018-06-06T03:43:02.876Z,23.35
2018-06-06T03:43:43.394Z,23.35
2018-06-06T03:44:23.904Z,23.36
2018-06-06T03:45:04.414Z,23.4
2018-06-06T03:45:44.928Z,23.38
2018-06-06T03:46:25.431Z,23.36
2018-06-06T03:47:05.943Z,23.32
2018-06-06T03:47:46.458Z,23.36
2018-06-06T03:48:26.971Z,23.32
2018-06-06T03:49:07.469Z,23.33
2018-06-06T03:49:47.965Z,23.36
2018-06-06T03:50:28.457Z,23.43
2018-06-06T03:51:09.013Z,23.46
2018-06-06T03:51:49.576Z,23.39
2018-06-06T03:52:30.025Z,23.43
2018-06-06T03:53:10.522Z,23.35
2018-06-06T03:53:51.031Z,23.27
2018-06-06T03:54:31.553Z,23.31
2018-06-06T03:55:12.066Z,23.19
2018-06-06T03:55:52.567Z,23.22
2018-06-06T03:56:33.097Z,23.35
2018-06-06T03:57:13.573Z,23.28
2018-06-06T03:57:54.110Z,23.33
2018-06-06T03:58:34.589Z,23.36
2018-06-06T03:59:15.129Z,23.4
2018-06-06T03:59:55.660Z,23.36
2018-06-06T04:00:36.138Z,23.48
2018-06-06T04:01:16.656Z,23.54
2018-06-06T04:01:57.175Z,23.58
2018-06-06T04:02:37.675Z,23.57
2018-06-06T04:03:18.199Z,23.66
2018-06-06T04:03:58.773Z,23.55
2018-06-06T04:04:39.289Z,23.75
2018-06-06T04:05:19.786Z,23.69
2018-06-06T04:06:00.300Z,23.73
2018-06-06T04:06:40.803Z,23.75
2018-06-06T04:07:21.344Z,23.85
2018-06-06T04:08:01.848Z,23.87
2018-06-06T04:08:42.357Z,23.9
2018-06-06T04:09:22.880Z,23.85
2018-06-06T04:10:03.443Z,23.8
2018-06-06T04:10:44.022Z,23.79
2018-06-06T04:11:24.534Z,23.95
2018-06-06T04:12:05.048Z,23.95
2018-06-06T04:12:45.541Z,24.02
2018-06-06T04:13:26.035Z,24.03
2018-06-06T04:14:06.594Z,24.13
2018-06-06T04:14:47.086Z,24.12
2018-06-06T04:15:27.582Z,24.13
2018-06-06T04:16:08.072Z,24.09
2018-06-06T04:16:48.599Z,24.18
2018-06-06T04:17:29.045Z,24.12
2018-06-06T04:18:09.559Z,24.12
2018-06-06T04:18:50.063Z,24.13
2018-06-06T04:19:30.576Z,24.13
2018-06-06T04:20:11.087Z,24.12
2018-06-06T04:20:51.600Z,24.15
2018-06-06T04:21:32.089Z,24.12
2018-06-06T04:22:12.616Z,24.27
2018-06-06T04:22:53.143Z,24.25
2018-06-06T04:23:33.656Z,24.15
2018-06-06T04:24:14.152Z,24.21
2018-06-06T04:24:54.645Z,24.25
2018-06-06T04:25:35.177Z,24.22
2018-06-06T04:26:15.692Z,24.22
2018-06-06T04:26:56.206Z,24.09
2018-06-06T04:27:36.694Z,24.06
2018-06-06T04:28:17.207Z,24.1
2018-06-06T04:28:57.713Z,24.13
2018-06-06T04:29:38.212Z,23.93
2018-06-06T04:30:18.788Z,24.02
2018-06-06T04:30:59.256Z,24.05
2018-06-06T04:31:39.772Z,24.1
2018-06-06T04:32:20.291Z,24.1
2018-06-06T04:33:00.789Z,24.09
2018-06-06T04:33:41.355Z,24.15
2018-06-06T04:34:21.783Z,24.24
2018-06-06T04:35:02.304Z,24.47
2018-06-06T04:35:42.840Z,24.47
2018-06-06T04:36:23.327Z,24.52
2018-06-06T04:37:03.841Z,24.53
2018-06-06T04:37:44.358Z,24.57
2018-06-06T04:38:24.849Z,24.58
2018-06-06T04:39:05.346Z,24.83
2018-06-06T04:39:45.849Z,24.88
2018-06-06T04:40:26.357Z,25.08
2018-06-06T04:41:06.853Z,24.9
2018-06-06T04:41:47.375Z,24.76
2018-06-06T04:42:27.898Z,24.69
2018-06-06T04:43:08.403Z,24.65
2018-06-06T04:43:48.887Z,24.77
2018-06-06T04:44:29.392Z,24.64
2018-06-06T04:45:09.901Z,24.69
2018-06-06T04:45:50.445Z,24.78
2018-06-06T04:46:31.004Z,24.76
2018-06-06T04:47:11.482Z,24.78
2018-06-06T04:47:51.982Z,24.81
2018-06-06T04:48:32.476Z,24.71
2018-06-06T04:49:12.987Z,24.68
2018-06-06T04:49:53.511Z,24.87
2018-06-06T04:50:34.032Z,25.09
2018-06-06T04:51:14.551Z,25.1
2018-06-06T04:51:55.061Z,25.28
2018-06-06T04:52:35.589Z,25.3
2018-06-06T04:53:16.084Z,25.24
2018-06-06T04:53:56.608Z,25.15
2018-06-06T04:54:37.110Z,25.02
2018-06-06T04:55:17.609Z,24.93
2018-06-06T04:55:58.169Z,24.88
2018-06-06T04:56:38.659Z,24.93
2018-06-06T04:57:19.176Z,24.98
2018-06-06T04:57:59.677Z,24.95
2018-06-06T04:58:40.194Z,25.05
2018-06-06T04:59:20.678Z,25.09
2018-06-06T05:00:01.186Z,25.13
2018-06-06T05:00:41.667Z,24.96
2018-06-06T05:01:22.174Z,24.95
2018-06-06T05:02:02.690Z,25.03
2018-06-06T05:02:43.182Z,24.9
2018-06-06T05:03:23.693Z,24.88
2018-06-06T05:04:04.197Z,24.9
2018-06-06T05:04:44.721Z,24.91
2018-06-06T05:05:25.229Z,24.93
2018-06-06T05:06:05.750Z,24.99
2018-06-06T05:06:46.268Z,24.93
2018-06-06T05:07:26.797Z,24.96
2018-06-06T05:08:07.308Z,25.05
2018-06-06T05:08:47.837Z,25.09
2018-06-06T05:09:28.375Z,25.2
2018-06-06T05:10:08.880Z,25.21
2018-06-06T05:10:49.393Z,25.33
2018-06-06T05:11:29.908Z,25.32
2018-06-06T05:12:10.448Z,25.39
2018-06-06T05:12:50.930Z,25.39
2018-06-06T05:13:31.430Z,25.5
2018-06-06T05:14:11.994Z,25.4
2018-06-06T05:14:52.543Z,25.45
2018-06-06T05:15:33.018Z,25.61
2018-06-06T05:17:21.098Z,25.77
2018-06-06T05:18:01.604Z,25.95
2018-06-06T05:18:42.124Z,25.95
2018-06-06T05:19:22.626Z,26.09
2018-06-06T05:20:03.103Z,26.2
2018-06-06T05:20:43.602Z,26.37
2018-06-06T05:21:24.109Z,26.35
2018-06-06T05:22:04.615Z,26.32
2018-06-06T05:22:45.134Z,26.29
2018-06-06T05:23:25.724Z,26.05
2018-06-06T05:24:06.200Z,26.01
2018-06-06T05:24:46.690Z,26.02
2018-06-06T05:25:27.233Z,25.91
2018-06-06T05:26:07.713Z,25.8
2018-06-06T05:26:48.241Z,25.79
2018-06-06T05:27:28.720Z,25.73
2018-06-06T05:28:09.225Z,25.64
2018-06-06T05:28:49.730Z,25.65
2018-06-06T05:29:30.229Z,25.62
2018-06-06T05:30:10.769Z,25.62
2018-06-06T05:30:51.274Z,25.51
2018-06-06T05:31:32.629Z,25.38
2018-06-06T05:32:13.086Z,25.42
2018-06-06T05:32:53.603Z,25.28
2018-06-06T05:33:34.104Z,25.36
2018-06-06T05:34:14.624Z,25.24
2018-06-06T05:34:55.141Z,25.21
2018-06-06T05:35:35.647Z,25.15
2018-06-06T05:36:16.184Z,25.09
2018-06-06T05:36:56.710Z,25.09
2018-06-06T05:37:37.227Z,25.17
2018-06-06T05:38:17.741Z,25.28
2018-06-06T05:38:58.267Z,25.4
2018-06-06T05:39:38.781Z,25.28
2018-06-06T05:40:19.300Z,25.38
2018-06-06T05:41:01.285Z,25.38
2018-06-06T05:41:41.815Z,25.43
2018-06-06T05:42:22.334Z,25.46
2018-06-06T05:43:02.859Z,25.6
2018-06-06T05:43:43.364Z,25.67
2018-06-06T05:44:23.880Z,25.67
2018-06-06T05:45:04.422Z,25.52
2018-06-06T05:45:44.928Z,25.52
2018-06-06T05:46:25.449Z,25.76
2018-06-06T05:47:05.969Z,25.79
2018-06-06T05:47:46.522Z,25.75
2018-06-06T05:48:26.998Z,25.9
2018-06-06T05:49:07.516Z,25.95
2018-06-06T05:49:48.030Z,25.88
2018-06-06T05:50:28.520Z,25.94
2018-06-06T05:51:09.011Z,25.88
2018-06-06T05:51:49.617Z,26.01
2018-06-06T05:52:30.119Z,25.91
2018-06-06T05:53:10.941Z,25.98
2018-06-06T05:53:51.554Z,26.36
2018-06-06T05:54:32.044Z,26.4
2018-06-06T05:55:12.566Z,26.39
2018-06-06T05:55:53.079Z,26.45
2018-06-06T05:56:33.566Z,26.7
2018-06-06T05:57:14.123Z,26.88
2018-06-06T05:57:54.657Z,27.06
2018-06-06T05:58:35.231Z,27.14
2018-06-06T05:59:16.233Z,27.36
2018-06-06T05:59:56.664Z,27.44
2018-06-06T06:00:37.237Z,27.57
2018-06-06T06:01:17.758Z,27.77
2018-06-06T06:01:58.272Z,27.85
2018-06-06T06:02:38.836Z,27.82
2018-06-06T06:03:19.289Z,27.81
2018-06-06T06:03:59.772Z,27.87
2018-06-06T06:04:40.282Z,27.87
2018-06-06T06:05:20.837Z,27.99
2018-06-06T06:06:01.361Z,27.93
2018-06-06T06:06:41.863Z,28.06
2018-06-06T06:07:22.368Z,28.19
2018-06-06T06:08:02.829Z,28.37
2018-06-06T06:08:43.361Z,28.58
2018-06-06T06:09:23.842Z,28.52
2018-06-06T06:10:04.358Z,28.54
2018-06-06T06:10:44.864Z,28.56
2018-06-06T06:11:25.387Z,28.49
2018-06-06T06:12:05.900Z,28.66
2018-06-06T06:12:46.400Z,28.66
2018-06-06T06:13:26.885Z,28.74
2018-06-06T06:14:07.412Z,28.83
2018-06-06T06:14:47.933Z,28.7
2018-06-06T06:15:28.470Z,28.83
2018-06-06T06:16:09.030Z,28.89
2018-06-06T06:16:49.534Z,28.85
2018-06-06T06:17:30.034Z,28.93
2018-06-06T06:18:10.521Z,29.12
2018-06-06T06:18:51.050Z,29.15
2018-06-06T06:19:31.522Z,29.09
2018-06-06T06:20:12.024Z,29.11
2018-06-06T06:20:52.524Z,29.06
2018-06-06T06:21:33.053Z,29.05
2018-06-06T06:22:13.525Z,29.04
2018-06-06T06:22:54.041Z,28.9
2018-06-06T06:23:34.548Z,29.02
2018-06-06T06:24:15.145Z,29.02
2018-06-06T06:24:55.565Z,29.04
2018-06-06T06:25:36.065Z,28.98
2018-06-06T06:26:16.531Z,29.04
2018-06-06T06:26:57.004Z,29.16
2018-06-06T06:27:37.576Z,29.05
2018-06-06T06:28:18.138Z,29.04
2018-06-06T06:28:58.531Z,29.21
2018-06-06T06:29:39.040Z,29.21
2018-06-06T06:30:19.750Z,29.18
2018-06-06T06:31:00.185Z,29.14
2018-06-06T06:31:40.698Z,29.16
2018-06-06T06:32:21.199Z,29.14
2018-06-06T06:33:01.702Z,29.37
2018-06-06T06:34:54.780Z,28.98
2018-06-06T06:35:35.315Z,29.05
2018-06-06T06:36:15.808Z,29.09
2018-06-06T06:36:58.035Z,29.04
2018-06-06T06:37:38.528Z,29.16
2018-06-06T06:38:19.058Z,29.11
2018-06-06T06:38:59.544Z,29.05
2018-06-06T06:39:40.027Z,29.04
2018-06-06T06:40:20.554Z,29.04
2018-06-06T06:41:01.062Z,29.09
2018-06-06T06:41:41.684Z,29.15
2018-06-06T06:42:22.166Z,29.12
2018-06-06T06:43:02.710Z,29
2018-06-06T06:43:43.249Z,29
2018-06-06T06:44:23.767Z,28.92
2018-06-06T06:45:04.293Z,28.83
2018-06-06T06:45:44.813Z,28.71
2018-06-06T06:47:32.883Z,28.59
2018-06-06T06:48:13.378Z,28.48
2018-06-06T06:48:53.915Z,28.55
2018-06-06T06:49:34.406Z,28.68
2018-06-06T06:50:14.904Z,28.68
2018-06-06T06:50:55.441Z,28.73
2018-06-06T06:51:35.910Z,28.81
2018-06-06T06:52:16.413Z,28.73
2018-06-06T06:52:56.924Z,28.66
2018-06-06T06:53:37.437Z,28.71
2018-06-06T06:54:17.934Z,28.56
2018-06-06T06:54:58.485Z,28.44
2018-06-06T06:55:38.957Z,28.31
2018-06-06T06:56:19.458Z,28.29
2018-06-06T06:56:59.949Z,28.43
2018-06-06T06:57:40.479Z,28.37
2018-06-06T06:58:20.964Z,28.39
2018-06-06T06:59:01.473Z,28.31
2018-06-06T06:59:41.937Z,28.3
2018-06-06T07:00:22.454Z,28.37
2018-06-06T07:01:03.123Z,28.4
2018-06-06T07:01:43.552Z,28.41
2018-06-06T07:02:24.071Z,28.49
2018-06-06T07:03:04.600Z,28.54
2018-06-06T07:03:45.050Z,28.59
2018-06-06T07:04:25.608Z,28.61
2018-06-06T07:05:06.030Z,28.58
2018-06-06T07:05:46.528Z,28.41
2018-06-06T07:06:27.033Z,28.34
2018-06-06T07:07:07.585Z,28.34
2018-06-06T07:07:48.090Z,28.39
2018-06-06T07:08:28.773Z,28.64
2018-06-06T07:09:09.178Z,28.76
2018-06-06T07:09:49.711Z,28.85
2018-06-06T07:10:30.193Z,28.93
2018-06-06T07:11:10.699Z,29
2018-06-06T07:11:51.192Z,29.16
2018-06-06T07:12:31.735Z,29.26
2018-06-06T07:13:12.219Z,29.3
2018-06-06T07:13:52.732Z,29.31
2018-06-06T07:14:33.256Z,29.36
2018-06-06T07:15:13.771Z,29.33
2018-06-06T07:15:54.281Z,29.3
2018-06-06T07:16:34.756Z,29.27
2018-06-06T07:17:15.235Z,29.34
2018-06-06T07:17:56.475Z,29.37
2018-06-06T07:18:36.998Z,29.34
2018-06-06T07:19:17.532Z,29.41
2018-06-06T07:19:57.975Z,29.33
2018-06-06T07:20:38.525Z,29.39
2018-06-06T07:21:19.079Z,29.39
2018-06-06T07:21:59.565Z,29.37
2018-06-06T07:22:40.092Z,29.51
2018-06-06T07:23:20.607Z,29.52
2018-06-06T07:24:01.118Z,29.6
2018-06-06T07:24:41.581Z,29.55
2018-06-06T07:25:22.115Z,29.55
2018-06-06T07:26:02.605Z,29.34
2018-06-06T07:26:43.119Z,29.34
2018-06-06T07:27:23.638Z,29.36
2018-06-06T07:28:04.136Z,29.46
2018-06-06T07:28:44.613Z,29.53
2018-06-06T07:29:25.095Z,29.55
2018-06-06T07:30:05.618Z,29.51
2018-06-06T07:30:46.125Z,29.52
2018-06-06T07:31:26.662Z,29.58
2018-06-06T07:32:07.134Z,29.52
2018-06-06T07:32:47.651Z,29.52
2018-06-06T07:33:28.226Z,29.52
2018-06-06T07:34:08.665Z,29.61
2018-06-06T07:34:49.275Z,29.58
2018-06-06T07:35:29.684Z,29.39
2018-06-06T07:36:10.217Z,29.55
2018-06-06T07:36:50.730Z,29.64
2018-06-06T07:39:03.956Z,29.73
2018-06-06T07:39:44.489Z,29.8
2018-06-06T07:40:24.988Z,29.76
2018-06-06T07:41:05.510Z,29.68
2018-06-06T07:41:46.039Z,29.74
2018-06-06T07:42:26.554Z,29.79
2018-06-06T07:43:07.073Z,29.53
2018-06-06T07:43:47.581Z,29.52
2018-06-06T07:44:28.097Z,29.57
2018-06-06T07:45:08.717Z,29.64
2018-06-06T07:45:49.082Z,29.67
2018-06-06T07:46:29.612Z,29.73
2018-06-06T07:47:10.113Z,29.8
2018-06-06T07:48:58.342Z,29.39
2018-06-06T07:49:38.866Z,29.34
2018-06-06T07:50:19.460Z,29.31
2018-06-06T07:50:59.981Z,29.28
2018-06-06T07:51:40.475Z,29.39
2018-06-06T07:52:20.985Z,29.45
2018-06-06T07:53:01.573Z,29.37
2018-06-06T07:53:41.997Z,29.36
2018-06-06T07:54:22.519Z,29.42
2018-06-06T07:55:02.977Z,29.39
2018-06-06T07:55:43.492Z,29.51
2018-06-06T07:56:24.005Z,29.6
2018-06-06T07:57:04.533Z,29.67
2018-06-06T07:57:45.037Z,29.51
2018-06-06T07:58:25.580Z,29.49
2018-06-06T07:59:06.018Z,29.39
2018-06-06T07:59:46.513Z,29.52
2018-06-06T08:00:27.031Z,29.64
2018-06-06T08:01:07.553Z,29.63
2018-06-06T08:01:48.055Z,29.67
2018-06-06T08:02:28.617Z,29.67
2018-06-06T08:03:09.136Z,29.76
2018-06-06T08:03:49.639Z,29.68
2018-06-06T08:04:30.217Z,29.63
2018-06-06T08:05:10.725Z,29.55
2018-06-06T08:05:51.222Z,29.73
2018-06-06T08:06:31.656Z,29.58
2018-06-06T08:07:12.281Z,29.43
2018-06-06T08:07:52.678Z,29.37
2018-06-06T08:08:33.260Z,29.39
2018-06-06T08:09:13.751Z,29.37
2018-06-06T08:09:54.229Z,29.28
2018-06-06T08:10:34.713Z,29.18
2018-06-06T08:11:15.285Z,29.21
2018-06-06T08:11:55.774Z,29.14
2018-06-06T08:12:36.306Z,29.27
2018-06-06T08:13:16.779Z,29.41
2018-06-06T08:13:57.290Z,29.41
2018-06-06T08:14:37.800Z,29.49
2018-06-06T08:15:18.308Z,29.49
2018-06-06T08:15:58.806Z,29.37
2018-06-06T08:16:39.323Z,29.42
2018-06-06T08:17:19.886Z,29.28
2018-06-06T08:18:00.362Z,29.39
2018-06-06T08:18:40.829Z,29.37
2018-06-06T08:19:21.366Z,29.58
2018-06-06T08:20:01.861Z,29.63
2018-06-06T08:20:42.430Z,29.64
2018-06-06T08:21:22.869Z,29.64
2018-06-06T08:22:03.366Z,29.45
2018-06-06T08:22:45.488Z,29.39
2018-06-06T08:23:26.096Z,29.34
2018-06-06T08:24:06.637Z,29.27
2018-06-06T08:24:48.063Z,29.24
2018-06-06T08:25:29.957Z,29.16
2018-06-06T08:26:10.481Z,29.08
2018-06-06T08:26:50.949Z,29.02
2018-06-06T08:27:31.441Z,29.14
2018-06-06T08:28:11.974Z,29.23
2018-06-06T08:28:52.472Z,29.33
2018-06-06T08:29:32.973Z,29.37
2018-06-06T08:30:13.469Z,29.46
2018-06-06T08:30:54.006Z,29.36
2018-06-06T08:31:34.518Z,29.28
2018-06-06T08:32:15.099Z,29.27
2018-06-06T08:32:55.641Z,29.28
2018-06-06T08:33:36.085Z,29.31
2018-06-06T08:34:16.550Z,29.31
2018-06-06T08:34:57.079Z,29.31
2018-06-06T08:35:37.604Z,29.3
2018-06-06T08:36:18.077Z,29.12
2018-06-06T08:36:58.556Z,29.14
2018-06-06T08:37:39.118Z,29.05
2018-06-06T08:38:19.633Z,29.05
2018-06-06T08:39:00.187Z,28.98
2018-06-06T08:39:40.622Z,28.98
2018-06-06T08:40:21.179Z,29.06
2018-06-06T08:41:01.682Z,29.16
2018-06-06T08:41:42.230Z,29.14
2018-06-06T08:42:22.753Z,29.15
2018-06-06T08:43:03.266Z,29.02
2018-06-06T08:43:43.768Z,28.76
2018-06-06T08:44:24.274Z,28.77
2018-06-06T08:45:04.777Z,28.81
2018-06-06T08:45:45.270Z,28.77
2018-06-06T08:46:25.822Z,28.78
2018-06-06T08:47:06.319Z,28.62
2018-06-06T08:47:46.840Z,28.67
2018-06-06T08:48:27.368Z,28.67
2018-06-06T08:49:07.882Z,28.59
2018-06-06T08:49:48.343Z,28.64
2018-06-06T08:50:28.864Z,28.62
2018-06-06T08:51:09.363Z,28.55
2018-06-06T08:51:49.865Z,28.56
2018-06-06T08:52:30.378Z,28.74